Terminal Aerodrome Forecast
Issued by NWS

Home | Current Version | Previous Version | Text Only | Print | Product List | Glossary On
Versions: 1 2 3 4 5 6 7 8 9 10 11 12
667
FTUS44 KLZK 031736
TAFHOT
TAF
KHOT 031736Z 0318/0418 10007KT 6SM -RA BR SCT050 OVC090
     FM032100 09008KT 4SM -RA BR OVC030
      TEMPO 0321/0324 2SM -RA BR OVC010
     FM040000 09008KT 1 1/2SM -RA BR OVC007
     FM041200 08004KT 1/2SM -RA FG OVC003
     FM041700 01003KT 4SM -RA BR OVC007=

USA.gov is the U.S. government's official web portal to all federal, state and local government web resources and services.